createdAt,value
2022-08-17T04:57:39.432Z,100.00
2022-08-17T05:03:06.442Z,100.00
2022-08-17T05:08:28.909Z,100.00
2022-08-17T05:13:50.837Z,100.00
2022-08-17T05:19:13.093Z,100.00
2022-08-17T05:24:42.716Z,100.00
2022-08-17T05:30:06.405Z,100.00
2022-08-17T05:35:32.474Z,98.62
2022-08-17T05:40:55.575Z,98.25
2022-08-17T05:46:26.300Z,94.54
2022-08-17T05:52:04.536Z,92.66
2022-08-17T05:57:53.271Z,85.48
2022-08-17T06:03:40.216Z,82.90
2022-08-17T06:09:06.015Z,79.03
2022-08-17T06:14:39.606Z,78.14
2022-08-17T06:20:09.406Z,72.26
2022-08-17T06:25:43.488Z,69.56
2022-08-17T06:31:23.515Z,67.44
2022-08-17T06:36:59.562Z,64.03
2022-08-17T06:42:54.737Z,63.77
2022-08-17T06:48:30.908Z,63.08
2022-08-17T06:54:20.007Z,61.99
2022-08-17T06:59:56.812Z,61.50
2022-08-17T07:05:21.605Z,60.91
2022-08-17T07:10:57.374Z,61.60
2022-08-17T07:16:25.995Z,59.21
2022-08-17T07:22:18.574Z,60.69
2022-08-17T07:27:53.104Z,56.30
2022-08-17T07:33:28.270Z,59.01
2022-08-17T07:39:01.283Z,58.76
2022-08-17T07:44:23.642Z,57.96
2022-08-17T07:49:49.544Z,56.31
2022-08-17T07:55:33.262Z,55.22
2022-08-17T08:01:11.074Z,54.89
2022-08-17T08:06:46.693Z,53.34
2022-08-17T08:12:33.459Z,54.20
2022-08-17T08:18:03.413Z,54.41
2022-08-17T08:24:00.543Z,52.95
2022-08-17T08:29:38.622Z,53.31
2022-08-17T08:35:27.151Z,53.66
2022-08-17T08:40:57.003Z,50.75
2022-08-17T08:46:30.841Z,51.81
2022-08-17T08:51:58.545Z,50.98
2022-08-17T08:57:34.448Z,51.49
2022-08-17T09:03:20.573Z,51.55
2022-08-17T09:09:13.444Z,51.09
2022-08-17T09:14:47.344Z,50.58
2022-08-17T09:20:28.018Z,50.89
2022-08-17T09:25:59.745Z,49.58
2022-08-17T09:31:46.471Z,49.53
2022-08-17T09:37:21.131Z,48.69
2022-08-17T09:42:53.038Z,49.08
2022-08-17T09:48:21.054Z,49.41
2022-08-17T09:53:44.942Z,48.29
2022-08-17T09:59:28.455Z,48.96
2022-08-17T10:05:19.362Z,49.88
2022-08-17T10:10:56.439Z,49.27
2022-08-17T10:16:44.739Z,50.19
2022-08-17T10:23:05.212Z,50.06
2022-08-17T10:28:33.071Z,50.25
2022-08-17T10:34:05.833Z,48.68
2022-08-17T10:39:52.308Z,48.24
2022-08-17T10:45:18.351Z,48.44
2022-08-17T10:50:46.831Z,48.57
2022-08-17T10:56:14.900Z,48.13
2022-08-17T11:01:38.389Z,48.21
2022-08-17T11:07:44.228Z,47.45
2022-08-17T11:13:59.270Z,48.83
2022-08-17T11:19:44.702Z,48.49
2022-08-17T11:25:21.559Z,48.49
2022-08-17T11:31:20.700Z,47.07
2022-08-17T11:37:37.381Z,48.05
2022-08-17T11:43:33.091Z,47.92
2022-08-17T11:49:28.102Z,48.34
2022-08-17T11:54:49.753Z,48.66
2022-08-17T12:00:46.971Z,49.37
2022-08-17T12:06:30.588Z,49.73
2022-08-17T12:12:11.822Z,49.15
2022-08-17T12:23:36.789Z,47.82
2022-08-17T12:29:18.067Z,46.87
2022-08-17T12:34:58.083Z,47.25
2022-08-17T12:40:27.760Z,47.02
2022-08-17T12:46:14.824Z,45.75
2022-08-17T12:51:43.514Z,46.89
2022-08-17T12:57:12.627Z,46.39
2022-08-17T13:02:43.738Z,46.03
2022-08-17T13:08:14.461Z,45.99
2022-08-17T13:13:43.484Z,45.30
2022-08-17T13:19:16.442Z,44.21
2022-08-17T13:24:38.830Z,44.28
2022-08-17T13:30:08.624Z,45.47
2022-08-17T13:35:43.325Z,45.15
2022-08-17T13:41:08.078Z,45.65
2022-08-17T13:46:33.084Z,46.78
2022-08-17T13:51:59.215Z,47.09
2022-08-17T13:57:29.220Z,47.77
2022-08-17T14:02:52.188Z,47.75
2022-08-17T14:08:18.059Z,47.85
2022-08-17T14:13:42.884Z,48.54
2022-08-17T14:19:04.845Z,49.36
2022-08-17T14:24:41.290Z,49.64
2022-08-17T14:30:08.634Z,48.50
2022-08-17T14:35:30.770Z,48.72
2022-08-17T14:40:53.419Z,49.05
2022-08-17T14:46:15.918Z,49.68
2022-08-17T14:51:43.717Z,50.00
2022-08-17T14:57:25.815Z,50.56
2022-08-17T15:02:55.101Z,51.13
2022-08-17T15:08:18.474Z,51.68
2022-08-17T15:13:52.954Z,52.67
2022-08-17T15:19:15.233Z,53.39
2022-08-17T15:24:37.045Z,54.04
2022-08-17T15:29:58.913Z,55.05
2022-08-17T15:35:28.042Z,55.73
2022-08-17T15:40:52.015Z,56.65
2022-08-17T15:46:19.722Z,57.36
2022-08-17T15:51:41.766Z,57.90
2022-08-17T15:57:03.459Z,58.76
2022-08-17T16:03:46.107Z,59.31
2022-08-17T16:08:21.467Z,60.24
2022-08-17T16:13:55.039Z,60.91
2022-08-17T16:19:18.242Z,61.87
2022-08-17T16:24:56.852Z,62.59
2022-08-17T16:30:22.102Z,63.22
2022-08-17T16:35:44.564Z,64.08
2022-08-17T16:41:07.413Z,65.15
2022-08-17T16:46:29.916Z,65.69
2022-08-17T16:51:52.057Z,66.43
2022-08-17T16:57:15.065Z,67.41
2022-08-17T17:02:48.461Z,68.29
2022-08-17T17:08:23.469Z,69.00
2022-08-17T17:13:58.302Z,69.66
2022-08-17T17:19:37.789Z,70.30
2022-08-17T17:25:50.054Z,71.36
2022-08-17T17:31:20.011Z,72.05
2022-08-17T17:36:50.691Z,72.79
2022-08-17T17:42:20.258Z,74.02
2022-08-17T17:47:42.653Z,75.11
2022-08-17T17:53:04.351Z,75.89
2022-08-17T17:58:50.870Z,76.65
2022-08-17T18:04:26.694Z,77.18
2022-08-17T18:10:02.109Z,78.34
2022-08-17T18:15:35.243Z,78.76
2022-08-17T18:21:06.244Z,79.75
2022-08-17T18:26:34.293Z,80.94
2022-08-17T18:32:23.872Z,81.39
2022-08-17T18:37:46.876Z,82.02
2022-08-17T18:43:44.009Z,82.71
2022-08-17T18:49:19.992Z,83.73
2022-08-17T18:55:09.217Z,84.49
2022-08-17T19:00:32.105Z,85.09
2022-08-17T19:05:57.573Z,86.25
2022-08-17T19:11:32.554Z,86.86
2022-08-17T19:17:02.351Z,87.38
2022-08-17T19:22:36.174Z,88.30
2022-08-17T19:28:21.834Z,89.08
2022-08-17T19:33:48.065Z,90.31
2022-08-17T19:39:37.985Z,90.71
2022-08-17T19:45:26.502Z,91.88
2022-08-17T19:51:18.293Z,92.78
2022-08-17T19:57:01.735Z,93.38
2022-08-17T20:02:46.921Z,94.00
2022-08-17T20:08:24.843Z,94.05
2022-08-17T20:14:11.017Z,93.67
2022-08-17T20:19:42.421Z,94.76
2022-08-17T20:25:29.839Z,95.45
2022-08-17T20:30:52.866Z,95.89
2022-08-17T20:36:21.002Z,96.22
2022-08-17T20:42:04.894Z,97.08
2022-08-17T20:48:07.391Z,97.58
2022-08-17T20:53:58.132Z,98.36
2022-08-17T20:59:30.871Z,99.24
2022-08-17T21:04:57.119Z,99.40
2022-08-17T21:10:22.012Z,99.94
2022-08-17T21:16:20.202Z,100.00
2022-08-17T21:21:58.546Z,100.00
2022-08-17T21:27:50.271Z,100.00
2022-08-17T21:33:25.556Z,100.00
2022-08-17T21:38:57.375Z,100.00
2022-08-17T21:50:42.377Z,100.00
2022-08-17T21:56:51.582Z,100.00
2022-08-17T22:02:35.640Z,100.00
2022-08-17T22:08:02.713Z,100.00
2022-08-17T22:13:29.833Z,100.00
2022-08-17T22:18:53.698Z,100.00
2022-08-17T22:24:25.203Z,100.00
2022-08-17T22:29:57.354Z,100.00
2022-08-17T22:35:40.377Z,100.00
2022-08-17T22:41:37.521Z,100.00
2022-08-17T22:46:59.585Z,100.00
2022-08-17T22:52:35.359Z,100.00
2022-08-17T22:58:16.423Z,100.00
2022-08-17T23:04:06.345Z,100.00
2022-08-17T23:09:30.405Z,100.00
2022-08-17T23:14:58.894Z,100.00
2022-08-17T23:20:22.391Z,100.00
2022-08-17T23:25:45.156Z,100.00
2022-08-17T23:31:08.336Z,100.00
2022-08-17T23:36:32.043Z,100.00
2022-08-17T23:41:54.115Z,100.00
2022-08-17T23:47:16.704Z,100.00
2022-08-17T23:52:41.633Z,100.00
2022-08-17T23:58:05.863Z,100.00
